createdAt,value
2022-08-30T00:01:06.394Z,26.60
2022-08-30T00:03:46.607Z,26.60
2022-08-30T00:06:19.687Z,26.60
2022-08-30T00:08:50.420Z,26.70
2022-08-30T00:11:28.180Z,26.70
2022-08-30T00:13:59.398Z,26.80
2022-08-30T00:16:29.094Z,26.80
2022-08-30T00:18:58.487Z,26.80
2022-08-30T00:21:28.215Z,26.90
2022-08-30T00:23:57.648Z,26.90
2022-08-30T00:26:27.270Z,26.90
2022-08-30T00:28:56.448Z,27.00
2022-08-30T00:31:27.249Z,27.00
2022-08-30T00:33:56.397Z,27.10
2022-08-30T00:36:25.691Z,27.10
2022-08-30T00:38:56.029Z,27.10
2022-08-30T00:41:25.460Z,27.20
2022-08-30T00:43:54.789Z,27.30
2022-08-30T00:46:24.191Z,27.30
2022-08-30T00:48:53.888Z,27.40
2022-08-30T00:51:24.094Z,27.50
2022-08-30T00:53:58.377Z,27.60
2022-08-30T00:56:30.585Z,27.60
2022-08-30T00:59:04.433Z,27.70
2022-08-30T01:01:37.176Z,27.70
2022-08-30T01:04:10.411Z,27.80
2022-08-30T01:06:41.089Z,27.90
2022-08-30T01:09:11.613Z,27.90
2022-08-30T01:11:44.305Z,28.00
2022-08-30T01:14:14.821Z,28.10
2022-08-30T01:16:46.279Z,28.20
2022-08-30T01:20:00.214Z,28.20
2022-08-30T01:23:17.573Z,28.40
2022-08-30T01:25:51.058Z,28.50
2022-08-30T01:28:27.775Z,28.60
2022-08-30T01:30:58.043Z,28.70
2022-08-30T01:33:27.577Z,28.70
2022-08-30T01:36:08.263Z,28.80
2022-08-30T01:38:47.407Z,28.90
2022-08-30T01:41:35.419Z,28.90
2022-08-30T01:44:12.529Z,29.00
2022-08-30T01:46:47.989Z,29.00
2022-08-30T01:49:27.583Z,29.10
2022-08-30T01:52:00.681Z,29.20
2022-08-30T01:54:33.380Z,29.20
2022-08-30T01:57:13.370Z,29.20
2022-08-30T01:59:48.626Z,29.30
2022-08-30T02:02:26.970Z,29.30
2022-08-30T02:04:57.367Z,29.40
2022-08-30T02:07:28.418Z,29.40
2022-08-30T02:09:57.921Z,29.50
2022-08-30T02:12:27.469Z,29.50
2022-08-30T02:14:56.760Z,29.60
2022-08-30T02:17:26.643Z,29.60
2022-08-30T02:19:56.356Z,29.60
2022-08-30T02:22:25.655Z,29.60
2022-08-30T02:24:54.998Z,29.70
2022-08-30T02:27:24.702Z,29.80
2022-08-30T02:29:56.126Z,29.80
2022-08-30T02:32:27.221Z,29.90
2022-08-30T02:34:58.623Z,30.00
2022-08-30T02:37:31.151Z,30.00
2022-08-30T02:40:02.497Z,30.10
2022-08-30T02:42:31.804Z,30.20
2022-08-30T02:45:01.556Z,30.30
2022-08-30T02:47:31.255Z,30.40
2022-08-30T02:50:00.655Z,30.40
2022-08-30T02:52:30.380Z,30.50
2022-08-30T02:55:00.780Z,30.50
2022-08-30T02:57:30.168Z,30.60
2022-08-30T02:59:59.740Z,30.60
2022-08-30T03:02:29.189Z,30.70
2022-08-30T03:04:58.794Z,30.70
2022-08-30T03:07:28.219Z,30.70
2022-08-30T03:09:57.448Z,30.80
2022-08-30T03:12:27.067Z,30.80
2022-08-30T03:14:57.412Z,30.80
2022-08-30T03:17:26.957Z,30.80
2022-08-30T03:19:56.357Z,30.90
2022-08-30T03:22:25.661Z,30.90
2022-08-30T03:24:55.033Z,30.90
2022-08-30T03:27:25.202Z,31.00
2022-08-30T03:29:54.543Z,31.10
2022-08-30T03:32:24.484Z,31.20
2022-08-30T03:34:53.853Z,31.30
2022-08-30T03:37:27.256Z,31.30
2022-08-30T03:39:57.859Z,31.30
2022-08-30T03:42:27.423Z,31.40
2022-08-30T03:44:56.900Z,31.50
2022-08-30T03:47:26.173Z,31.60
2022-08-30T03:49:55.465Z,31.70
2022-08-30T03:52:24.852Z,31.80
2022-08-30T03:54:54.200Z,31.80
2022-08-30T03:57:24.565Z,31.90
2022-08-30T03:59:54.172Z,31.90
2022-08-30T04:02:23.562Z,32.00
2022-08-30T04:04:53.145Z,32.00
2022-08-30T04:07:22.489Z,32.10
2022-08-30T04:09:51.803Z,32.10
2022-08-30T04:12:22.728Z,32.30
2022-08-30T04:14:52.670Z,32.40
2022-08-30T04:17:21.931Z,32.50
2022-08-30T04:22:33.914Z,32.50
2022-08-30T04:25:03.380Z,32.50
2022-08-30T04:27:33.460Z,32.40
2022-08-30T04:30:03.128Z,32.20
2022-08-30T04:32:32.495Z,32.10
2022-08-30T04:35:02.072Z,32.00
2022-08-30T04:37:31.458Z,31.90
2022-08-30T04:40:04.689Z,31.80
2022-08-30T04:42:37.006Z,31.80
2022-08-30T04:45:11.731Z,31.70
2022-08-30T04:47:41.019Z,31.70
2022-08-30T04:50:13.391Z,31.70
2022-08-30T04:52:43.133Z,31.70
2022-08-30T04:55:18.086Z,31.80
2022-08-30T04:57:50.022Z,31.80
2022-08-30T05:00:21.849Z,31.90
2022-08-30T05:02:51.443Z,31.90
2022-08-30T05:05:33.225Z,32.00
2022-08-30T05:08:02.624Z,32.10
2022-08-30T05:10:32.165Z,32.10
2022-08-30T05:13:01.779Z,32.10
2022-08-30T05:15:31.214Z,32.10
2022-08-30T05:18:01.048Z,32.10
2022-08-30T05:20:30.683Z,32.10
2022-08-30T05:23:00.093Z,32.00
2022-08-30T05:25:34.145Z,31.90
2022-08-30T05:28:03.683Z,31.80
2022-08-30T05:30:37.026Z,31.80
2022-08-30T05:37:16.231Z,31.90
2022-08-30T05:39:51.602Z,32.00
2022-08-30T05:42:21.761Z,32.10
2022-08-30T05:44:55.714Z,32.20
2022-08-30T05:47:25.585Z,32.30
2022-08-30T05:49:55.223Z,32.40
2022-08-30T05:52:24.589Z,32.50
2022-08-30T05:55:00.220Z,32.50
2022-08-30T05:57:29.604Z,32.60
2022-08-30T05:59:58.895Z,32.70
2022-08-30T06:02:28.490Z,32.80
2022-08-30T06:04:57.826Z,32.90
2022-08-30T06:07:27.713Z,33.00
2022-08-30T06:09:57.019Z,33.10
2022-08-30T06:12:26.825Z,33.20
2022-08-30T06:14:56.218Z,33.20
2022-08-30T06:17:25.497Z,33.20
2022-08-30T06:19:54.860Z,33.20
2022-08-30T06:22:24.145Z,33.10
2022-08-30T06:24:57.514Z,33.10
2022-08-30T06:27:27.379Z,33.00
2022-08-30T06:29:57.154Z,32.90
2022-08-30T06:32:26.701Z,32.80
2022-08-30T06:34:56.027Z,32.70
2022-08-30T06:37:29.817Z,32.70
2022-08-30T06:40:01.075Z,32.70
2022-08-30T06:42:34.992Z,32.60
2022-08-30T06:45:11.031Z,32.50
2022-08-30T06:47:41.848Z,32.50
2022-08-30T06:50:17.070Z,32.40
2022-08-30T06:52:47.949Z,32.40
2022-08-30T06:55:20.112Z,32.30
2022-08-30T06:57:49.464Z,32.30
2022-08-30T07:00:19.757Z,32.30
2022-08-30T07:02:49.164Z,32.20
2022-08-30T07:05:19.171Z,32.20
2022-08-30T07:07:48.579Z,32.20
2022-08-30T07:10:18.641Z,32.20
2022-08-30T07:12:48.679Z,32.10
2022-08-30T07:15:21.585Z,32.10
2022-08-30T07:18:04.153Z,32.10
2022-08-30T07:20:39.883Z,31.90
2022-08-30T07:23:11.685Z,31.70
2022-08-30T07:25:43.626Z,31.50
2022-08-30T07:28:13.967Z,31.30
2022-08-30T07:30:44.328Z,31.00
2022-08-30T07:33:13.719Z,30.90
2022-08-30T07:35:43.205Z,30.70
2022-08-30T07:38:16.265Z,30.60
2022-08-30T07:40:45.924Z,30.50
2022-08-30T07:43:15.904Z,30.40
2022-08-30T07:45:45.337Z,30.40
2022-08-30T07:48:14.730Z,30.30
2022-08-30T07:50:50.828Z,30.40
2022-08-30T07:53:21.859Z,30.40
2022-08-30T07:55:51.371Z,30.40
2022-08-30T07:58:20.892Z,30.50
2022-08-30T08:00:50.290Z,30.60
2022-08-30T08:03:20.398Z,30.80
2022-08-30T08:05:49.758Z,30.90
2022-08-30T08:08:19.231Z,31.10
2022-08-30T08:10:48.656Z,31.30
2022-08-30T08:13:18.048Z,31.50
2022-08-30T08:15:47.625Z,31.60
2022-08-30T08:18:17.170Z,31.70
2022-08-30T08:20:46.821Z,31.80
2022-08-30T08:23:17.539Z,31.80
2022-08-30T08:25:47.138Z,31.90
2022-08-30T08:28:16.613Z,31.90
2022-08-30T08:30:48.414Z,32.00
2022-08-30T08:33:19.815Z,32.00
2022-08-30T08:35:49.191Z,31.90
2022-08-30T08:38:18.997Z,31.90
2022-08-30T08:41:47.076Z,31.90
2022-08-30T08:44:59.187Z,31.80
2022-08-30T08:47:45.340Z,31.80
2022-08-30T08:50:24.798Z,31.70
2022-08-30T08:53:46.731Z,31.70
2022-08-30T08:56:20.873Z,31.60
2022-08-30T08:58:59.371Z,31.50
2022-08-30T09:01:31.785Z,31.50
2022-08-30T09:04:11.626Z,31.40
2022-08-30T09:07:21.858Z,31.40
2022-08-30T09:09:51.442Z,31.30
2022-08-30T09:12:22.094Z,31.30
2022-08-30T09:15:04.949Z,31.20
2022-08-30T09:18:04.980Z,31.10
2022-08-30T09:20:46.842Z,31.00
2022-08-30T09:23:29.446Z,30.90
2022-08-30T09:26:05.648Z,30.80
2022-08-30T09:28:51.006Z,30.70
2022-08-30T09:31:28.441Z,30.70
2022-08-30T09:34:08.742Z,30.60
2022-08-30T09:36:53.779Z,30.60
2022-08-30T09:39:42.523Z,30.60
2022-08-30T09:42:32.188Z,30.60
2022-08-30T09:45:11.715Z,30.60
2022-08-30T09:47:44.485Z,30.60
2022-08-30T09:50:20.935Z,30.60
2022-08-30T09:53:23.777Z,30.60
2022-08-30T09:56:14.300Z,30.70
2022-08-30T09:59:26.688Z,30.70
2022-08-30T10:02:25.968Z,30.70
2022-08-30T10:05:23.801Z,30.70
2022-08-30T10:08:21.457Z,30.70
2022-08-30T10:11:06.165Z,30.70
2022-08-30T10:14:13.037Z,30.70
2022-08-30T10:17:27.724Z,30.70
2022-08-30T10:20:34.868Z,30.70
2022-08-30T10:23:21.059Z,30.70
2022-08-30T10:26:04.374Z,30.70
2022-08-30T10:29:09.981Z,30.70
2022-08-30T10:32:05.747Z,30.70
2022-08-30T10:34:58.148Z,30.70
2022-08-30T10:37:33.443Z,30.70
2022-08-30T10:40:42.874Z,30.70
2022-08-30T10:43:32.970Z,30.70
2022-08-30T10:46:17.563Z,30.70
2022-08-30T10:48:50.747Z,30.70
2022-08-30T10:51:59.084Z,30.70
2022-08-30T10:55:07.202Z,30.70
2022-08-30T10:57:36.998Z,30.60
2022-08-30T11:00:17.085Z,30.60
2022-08-30T11:03:29.074Z,30.60
2022-08-30T11:06:42.108Z,30.60
2022-08-30T11:09:56.070Z,30.50
2022-08-30T11:12:47.163Z,30.50
2022-08-30T11:15:31.727Z,30.40
2022-08-30T11:18:15.820Z,30.40
2022-08-30T11:20:53.530Z,30.40
2022-08-30T11:23:37.209Z,30.30
2022-08-30T11:26:20.402Z,30.30
2022-08-30T11:29:08.017Z,30.30
2022-08-30T11:31:44.723Z,30.30
2022-08-30T11:34:56.675Z,30.30
2022-08-30T11:37:45.833Z,30.30
2022-08-30T11:41:06.095Z,30.20
2022-08-30T11:43:57.048Z,30.20
2022-08-30T11:46:41.083Z,30.20
2022-08-30T11:50:02.066Z,30.20
2022-08-30T11:53:12.500Z,30.20
2022-08-30T11:56:29.096Z,30.20
2022-08-30T11:59:27.478Z,30.10
2022-08-30T12:01:58.866Z,30.10
2022-08-30T12:04:48.467Z,30.10
2022-08-30T12:07:55.359Z,30.10
2022-08-30T12:10:42.650Z,30.00
2022-08-30T12:13:52.063Z,30.00
2022-08-30T12:17:02.136Z,30.00
2022-08-30T12:19:34.710Z,30.00
2022-08-30T12:22:10.438Z,29.90
2022-08-30T12:24:48.286Z,29.90
2022-08-30T12:27:35.176Z,29.90
2022-08-30T12:30:10.680Z,29.90
2022-08-30T12:32:48.782Z,29.90
2022-08-30T12:35:29.257Z,29.90
2022-08-30T12:38:19.243Z,29.90
2022-08-30T12:41:02.852Z,29.80
2022-08-30T12:43:51.415Z,29.80
2022-08-30T12:46:25.545Z,29.80
2022-08-30T12:48:55.303Z,29.80
2022-08-30T12:51:43.109Z,29.80
2022-08-30T12:54:29.108Z,29.80
2022-08-30T12:57:32.038Z,29.80
2022-08-30T13:00:01.826Z,29.70
2022-08-30T13:02:56.121Z,29.70
2022-08-30T13:05:48.611Z,29.70
2022-08-30T13:08:53.007Z,29.70
2022-08-30T13:11:29.784Z,29.70
2022-08-30T13:14:33.912Z,29.60
2022-08-30T13:17:30.228Z,29.60
2022-08-30T13:20:24.911Z,29.60
2022-08-30T13:23:10.312Z,29.60
2022-08-30T13:25:42.099Z,29.60
2022-08-30T13:28:12.584Z,29.50
2022-08-30T13:30:51.568Z,29.50
2022-08-30T13:33:21.838Z,29.50
2022-08-30T13:35:51.213Z,29.50
2022-08-30T13:38:20.748Z,29.40
2022-08-30T13:40:50.536Z,29.40
2022-08-30T13:43:19.826Z,29.40
2022-08-30T13:45:50.370Z,29.40
2022-08-30T13:48:24.694Z,29.40
2022-08-30T13:50:54.984Z,29.30
2022-08-30T13:56:14.219Z,29.30
2022-08-30T13:58:43.819Z,29.30
2022-08-30T14:01:15.695Z,29.20
2022-08-30T14:06:35.448Z,29.20
2022-08-30T14:09:08.344Z,29.20
2022-08-30T14:11:38.960Z,29.20
2022-08-30T14:14:22.191Z,29.20
2022-08-30T14:16:57.778Z,29.20
2022-08-30T14:19:30.250Z,29.20
2022-08-30T14:22:08.919Z,29.20
2022-08-30T14:24:38.238Z,29.20
2022-08-30T14:27:08.369Z,29.20
2022-08-30T14:29:37.720Z,29.20
2022-08-30T14:32:08.527Z,29.20
2022-08-30T14:34:37.876Z,29.20
2022-08-30T14:37:07.993Z,29.10
2022-08-30T14:39:38.920Z,29.20
2022-08-30T14:42:10.303Z,29.10
2022-08-30T14:44:55.306Z,29.10
2022-08-30T14:47:29.603Z,29.10
2022-08-30T14:50:01.978Z,29.10
2022-08-30T14:52:32.164Z,29.10
2022-08-30T14:55:09.081Z,29.10
2022-08-30T14:57:40.035Z,29.10
2022-08-30T15:00:14.325Z,29.10
2022-08-30T15:02:43.809Z,29.00
2022-08-30T15:05:13.425Z,29.00
2022-08-30T15:07:43.176Z,29.00
2022-08-30T15:10:15.861Z,29.00
2022-08-30T15:12:47.413Z,29.00
2022-08-30T15:15:21.875Z,29.00
2022-08-30T15:17:57.319Z,29.00
2022-08-30T15:20:30.334Z,29.00
2022-08-30T15:22:59.642Z,28.90
2022-08-30T15:25:29.702Z,28.90
2022-08-30T15:28:01.844Z,28.90
2022-08-30T15:30:31.134Z,28.90
2022-08-30T15:33:00.436Z,28.80
2022-08-30T15:35:30.007Z,28.80
2022-08-30T15:38:03.105Z,28.80
2022-08-30T15:40:37.298Z,28.80
2022-08-30T15:43:07.152Z,28.70
2022-08-30T15:45:36.476Z,28.70
2022-08-30T15:48:05.981Z,28.70
2022-08-30T15:50:36.880Z,28.70
2022-08-30T15:53:12.144Z,28.70
2022-08-30T15:55:41.415Z,28.70
2022-08-30T15:58:10.629Z,28.70
2022-08-30T16:00:44.816Z,28.70
2022-08-30T16:03:15.020Z,28.70
2022-08-30T16:05:44.591Z,28.70
2022-08-30T16:08:13.928Z,28.70
2022-08-30T16:10:48.674Z,28.60
2022-08-30T16:13:21.207Z,28.60
2022-08-30T16:15:50.728Z,28.60
2022-08-30T16:18:19.989Z,28.60
2022-08-30T16:20:49.230Z,28.60
2022-08-30T16:23:20.311Z,28.60
2022-08-30T16:25:49.722Z,28.50
2022-08-30T16:28:20.747Z,28.50
2022-08-30T16:30:50.638Z,28.50
2022-08-30T16:33:20.486Z,28.50
2022-08-30T16:35:58.170Z,28.50
2022-08-30T16:38:29.130Z,28.50
2022-08-30T16:40:58.956Z,28.50
2022-08-30T16:43:28.268Z,28.50
2022-08-30T16:46:00.649Z,28.50
2022-08-30T16:48:30.690Z,28.50
2022-08-30T16:51:00.942Z,28.50
2022-08-30T16:53:30.391Z,28.50
2022-08-30T16:55:59.769Z,28.50
2022-08-30T16:58:29.711Z,28.50
2022-08-30T17:00:59.276Z,28.40
2022-08-30T17:03:29.565Z,28.40
2022-08-30T17:06:00.716Z,28.40
2022-08-30T17:08:30.099Z,28.40
2022-08-30T17:11:00.448Z,28.40
2022-08-30T17:13:29.994Z,28.40
2022-08-30T17:16:02.464Z,28.30
2022-08-30T17:18:31.982Z,28.40
2022-08-30T17:21:01.306Z,28.30
2022-08-30T17:23:30.619Z,28.30
2022-08-30T17:26:00.103Z,28.30
2022-08-30T17:28:30.568Z,28.30
2022-08-30T17:31:00.134Z,28.30
2022-08-30T17:33:29.590Z,28.20
2022-08-30T17:35:58.890Z,28.20
2022-08-30T17:38:29.489Z,28.30
2022-08-30T17:41:07.262Z,28.20
2022-08-30T17:43:39.579Z,28.20
2022-08-30T17:46:21.669Z,28.20
2022-08-30T17:48:57.635Z,28.20
2022-08-30T17:51:32.079Z,28.20
2022-08-30T17:54:02.072Z,28.20
2022-08-30T17:56:35.508Z,28.20
2022-08-30T17:59:09.253Z,28.20
2022-08-30T18:01:39.837Z,28.10
2022-08-30T18:04:09.335Z,28.10
2022-08-30T18:06:38.656Z,28.00
2022-08-30T18:09:11.084Z,28.10
2022-08-30T18:11:42.640Z,28.00
2022-08-30T18:14:12.779Z,28.00
2022-08-30T18:16:49.645Z,28.00
2022-08-30T18:19:25.550Z,27.90
2022-08-30T18:21:56.167Z,27.90
2022-08-30T18:24:27.185Z,27.90
2022-08-30T18:26:57.272Z,27.90
2022-08-30T18:29:30.100Z,27.90
2022-08-30T18:32:05.078Z,27.80
2022-08-30T18:34:35.262Z,27.80
2022-08-30T18:37:04.516Z,27.80
2022-08-30T18:39:34.651Z,27.90
2022-08-30T18:42:07.346Z,27.80
2022-08-30T18:44:43.474Z,27.90
2022-08-30T18:47:13.731Z,27.80
2022-08-30T18:49:43.954Z,27.80
2022-08-30T18:52:13.655Z,27.80
2022-08-30T18:54:52.693Z,27.80
2022-08-30T18:57:24.322Z,27.80
2022-08-30T18:59:53.647Z,27.80
2022-08-30T19:02:23.377Z,27.80
2022-08-30T19:04:57.329Z,27.70
2022-08-30T19:07:34.194Z,27.70
2022-08-30T19:10:12.403Z,27.70
2022-08-30T19:12:42.939Z,27.70
2022-08-30T19:15:13.324Z,27.70
2022-08-30T19:17:46.887Z,27.70
2022-08-30T19:20:21.766Z,27.70
2022-08-30T19:23:09.928Z,27.70
2022-08-30T19:25:45.862Z,27.70
2022-08-30T19:28:20.899Z,27.70
2022-08-30T19:30:50.203Z,27.70
2022-08-30T19:33:21.146Z,27.70
2022-08-30T19:35:51.342Z,27.70
2022-08-30T19:38:21.253Z,27.70
2022-08-30T19:40:54.545Z,27.70
2022-08-30T19:43:24.168Z,27.70
2022-08-30T19:46:00.121Z,27.70
2022-08-30T19:48:32.829Z,27.70
2022-08-30T19:51:11.173Z,27.70
2022-08-30T19:53:44.067Z,27.70
2022-08-30T19:56:14.769Z,27.70
2022-08-30T19:58:44.091Z,27.60
2022-08-30T20:01:32.769Z,27.60
2022-08-30T20:04:03.401Z,27.60
2022-08-30T20:06:34.320Z,27.60
2022-08-30T20:09:05.174Z,27.50
2022-08-30T20:11:40.540Z,27.50
2022-08-30T20:14:13.671Z,27.50
2022-08-30T20:16:43.956Z,27.50
2022-08-30T20:19:18.496Z,27.50
2022-08-30T20:21:50.110Z,27.50
2022-08-30T20:24:19.410Z,27.50
2022-08-30T20:26:49.085Z,27.40
2022-08-30T20:29:18.739Z,27.40
2022-08-30T20:31:50.012Z,27.40
2022-08-30T20:34:20.187Z,27.40
2022-08-30T20:36:49.428Z,27.40
2022-08-30T20:39:18.704Z,27.40
2022-08-30T20:41:48.045Z,27.40
2022-08-30T20:44:20.123Z,27.40
2022-08-30T20:46:51.795Z,27.40
2022-08-30T20:49:21.516Z,27.40
2022-08-30T20:51:54.417Z,27.40
2022-08-30T20:54:24.418Z,27.40
2022-08-30T20:56:53.762Z,27.40
2022-08-30T20:59:22.965Z,27.40
2022-08-30T21:01:52.550Z,27.40
2022-08-30T21:04:24.536Z,27.40
2022-08-30T21:06:53.954Z,27.40
2022-08-30T21:09:23.235Z,27.40
2022-08-30T21:11:52.884Z,27.40
2022-08-30T21:14:23.036Z,27.40
2022-08-30T21:16:52.496Z,27.40
2022-08-30T21:19:21.796Z,27.40
2022-08-30T21:21:52.181Z,27.40
2022-08-30T21:24:21.611Z,27.40
2022-08-30T21:26:52.772Z,27.40
2022-08-30T21:29:21.948Z,27.30
2022-08-30T21:31:52.109Z,27.30
2022-08-30T21:34:21.450Z,27.30
2022-08-30T21:36:51.667Z,27.30
2022-08-30T21:39:29.309Z,27.30
2022-08-30T21:41:58.984Z,27.30
2022-08-30T21:44:29.319Z,27.30
2022-08-30T21:46:59.787Z,27.30
2022-08-30T21:49:29.055Z,27.30
2022-08-30T21:51:58.342Z,27.30
2022-08-30T21:54:31.325Z,27.30
2022-08-30T21:57:05.967Z,27.30
2022-08-30T21:59:36.199Z,27.20
2022-08-30T22:02:05.781Z,27.20
2022-08-30T22:04:35.129Z,27.20
2022-08-30T22:07:04.904Z,27.20
2022-08-30T22:09:34.139Z,27.20
2022-08-30T22:12:04.850Z,27.20
2022-08-30T22:14:36.139Z,27.20
2022-08-30T22:17:07.300Z,27.10
2022-08-30T22:19:36.747Z,27.10
2022-08-30T22:22:07.089Z,27.10
2022-08-30T22:24:36.471Z,27.10
2022-08-30T22:27:06.498Z,27.10
2022-08-30T22:29:36.261Z,27.10
2022-08-30T22:32:05.844Z,27.00
2022-08-30T22:34:35.203Z,27.00
2022-08-30T22:37:04.467Z,27.00
2022-08-30T22:39:33.671Z,27.00
2022-08-30T22:42:03.066Z,27.00
2022-08-30T22:44:32.324Z,27.00
2022-08-30T22:47:03.017Z,26.90
2022-08-30T22:49:32.240Z,26.90
2022-08-30T22:52:01.606Z,26.90
2022-08-30T22:54:32.011Z,26.90
2022-08-30T22:57:01.362Z,26.90
2022-08-30T22:59:33.989Z,26.80
2022-08-30T23:02:03.464Z,26.80
2022-08-30T23:04:33.397Z,26.80
2022-08-30T23:07:02.738Z,26.80
2022-08-30T23:09:32.311Z,26.80
2022-08-30T23:12:01.633Z,26.80
2022-08-30T23:14:30.957Z,26.80
2022-08-30T23:17:00.305Z,26.70
2022-08-30T23:19:29.748Z,26.80
2022-08-30T23:21:59.031Z,26.70
2022-08-30T23:24:40.628Z,26.70
2022-08-30T23:27:27.701Z,26.70
2022-08-30T23:30:09.251Z,26.70
2022-08-30T23:32:50.690Z,26.70
2022-08-30T23:35:32.978Z,26.80
2022-08-30T23:38:18.923Z,26.80
2022-08-30T23:41:00.534Z,26.80
2022-08-30T23:43:42.014Z,26.80
2022-08-30T23:46:23.638Z,26.80
2022-08-30T23:49:05.326Z,26.80
2022-08-30T23:51:47.847Z,26.80
2022-08-30T23:54:29.654Z,26.80
2022-08-30T23:57:11.170Z,26.80
2022-08-30T23:59:53.162Z,26.90
